sensor_id;sensor_type;location;lat;lon;timestamp;temperature;humidity
21891;DHT22;11110;52.386;16.940;2022-08-19T00:00:04;36.50;43.90
21891;DHT22;11110;52.386;16.940;2022-08-19T00:02:54;36.50;44.00
21891;DHT22;11110;52.386;16.940;2022-08-19T00:05:23;36.50;43.90
21891;DHT22;11110;52.386;16.940;2022-08-19T00:07:52;36.50;44.80
21891;DHT22;11110;52.386;16.940;2022-08-19T00:10:21;36.50;44.00
21891;DHT22;11110;52.386;16.940;2022-08-19T00:12:50;36.50;44.00
21891;DHT22;11110;52.386;16.940;2022-08-19T00:15:21;36.50;44.10
21891;DHT22;11110;52.386;16.940;2022-08-19T00:17:50;36.60;44.10
21891;DHT22;11110;52.386;16.940;2022-08-19T00:20:20;36.50;44.10
21891;DHT22;11110;52.386;16.940;2022-08-19T00:22:49;36.50;44.00
21891;DHT22;11110;52.386;16.940;2022-08-19T00:25:20;36.50;44.00
21891;DHT22;11110;52.386;16.940;2022-08-19T00:27:57;36.50;44.00
21891;DHT22;11110;52.386;16.940;2022-08-19T00:30:26;36.50;44.00
21891;DHT22;11110;52.386;16.940;2022-08-19T00:32:55;36.40;44.00
21891;DHT22;11110;52.386;16.940;2022-08-19T00:35:23;36.40;44.60
21891;DHT22;11110;52.386;16.940;2022-08-19T00:37:54;36.40;44.00
21891;DHT22;11110;52.386;16.940;2022-08-19T00:40:24;36.40;44.00
21891;DHT22;11110;52.386;16.940;2022-08-19T00:42:53;36.40;44.10
21891;DHT22;11110;52.386;16.940;2022-08-19T00:45:24;36.30;44.10
21891;DHT22;11110;52.386;16.940;2022-08-19T00:47:52;36.30;44.10
21891;DHT22;11110;52.386;16.940;2022-08-19T00:50:21;36.30;44.00
21891;DHT22;11110;52.386;16.940;2022-08-19T00:52:51;36.30;44.00
21891;DHT22;11110;52.386;16.940;2022-08-19T00:55:22;36.30;44.10
21891;DHT22;11110;52.386;16.940;2022-08-19T00:57:56;36.30;44.10
21891;DHT22;11110;52.386;16.940;2022-08-19T01:00:26;36.30;44.20
21891;DHT22;11110;52.386;16.940;2022-08-19T01:02:55;36.30;44.20
21891;DHT22;11110;52.386;16.940;2022-08-19T01:05:25;36.30;44.10
21891;DHT22;11110;52.386;16.940;2022-08-19T01:07:57;36.30;44.70
21891;DHT22;11110;52.386;16.940;2022-08-19T01:10:28;36.30;44.20
21891;DHT22;11110;52.386;16.940;2022-08-19T01:13:04;36.30;44.30
21891;DHT22;11110;52.386;16.940;2022-08-19T01:15:35;36.30;44.10
21891;DHT22;11110;52.386;16.940;2022-08-19T01:18:09;36.30;44.30
21891;DHT22;11110;52.386;16.940;2022-08-19T01:20:39;36.30;44.20
21891;DHT22;11110;52.386;16.940;2022-08-19T01:23:10;36.30;44.10
21891;DHT22;11110;52.386;16.940;2022-08-19T01:25:42;36.30;44.10
21891;DHT22;11110;52.386;16.940;2022-08-19T01:28:16;36.30;44.10
21891;DHT22;11110;52.386;16.940;2022-08-19T01:30:59;36.30;44.20
21891;DHT22;11110;52.386;16.940;2022-08-19T01:33:34;36.30;44.30
21891;DHT22;11110;52.386;16.940;2022-08-19T01:36:09;36.30;44.30
21891;DHT22;11110;52.386;16.940;2022-08-19T01:38:42;36.30;44.20
21891;DHT22;11110;52.386;16.940;2022-08-19T01:41:13;36.30;44.90
21891;DHT22;11110;52.386;16.940;2022-08-19T01:43:42;36.30;45.00
21891;DHT22;11110;52.386;16.940;2022-08-19T01:46:30;36.30;44.40
21891;DHT22;11110;52.386;16.940;2022-08-19T01:48:59;36.30;44.40
21891;DHT22;11110;52.386;16.940;2022-08-19T01:51:28;36.20;44.30
21891;DHT22;11110;52.386;16.940;2022-08-19T01:54:07;36.30;44.30
21891;DHT22;11110;52.386;16.940;2022-08-19T01:56:37;36.30;44.70
21891;DHT22;11110;52.386;16.940;2022-08-19T01:59:10;36.30;44.30
21891;DHT22;11110;52.386;16.940;2022-08-19T02:01:40;36.20;44.20
21891;DHT22;11110;52.386;16.940;2022-08-19T02:04:08;36.30;44.00
21891;DHT22;11110;52.386;16.940;2022-08-19T02:06:37;36.30;44.10
21891;DHT22;11110;52.386;16.940;2022-08-19T02:09:08;36.30;44.10
21891;DHT22;11110;52.386;16.940;2022-08-19T02:11:37;36.30;44.00
21891;DHT22;11110;52.386;16.940;2022-08-19T02:14:07;36.30;44.00
21891;DHT22;11110;52.386;16.940;2022-08-19T02:16:36;36.30;43.90
21891;DHT22;11110;52.386;16.940;2022-08-19T02:19:05;36.30;44.00
21891;DHT22;11110;52.386;16.940;2022-08-19T02:21:34;36.30;44.00
21891;DHT22;11110;52.386;16.940;2022-08-19T02:24:03;36.30;43.90
21891;DHT22;11110;52.386;16.940;2022-08-19T02:26:33;36.30;43.80
21891;DHT22;11110;52.386;16.940;2022-08-19T02:29:02;36.30;43.90
21891;DHT22;11110;52.386;16.940;2022-08-19T02:31:31;36.30;43.90
21891;DHT22;11110;52.386;16.940;2022-08-19T02:34:00;36.30;43.90
21891;DHT22;11110;52.386;16.940;2022-08-19T02:36:28;36.30;44.00
21891;DHT22;11110;52.386;16.940;2022-08-19T02:38:57;36.30;43.90
21891;DHT22;11110;52.386;16.940;2022-08-19T02:41:26;36.30;43.80
21891;DHT22;11110;52.386;16.940;2022-08-19T02:43:58;36.30;43.90
21891;DHT22;11110;52.386;16.940;2022-08-19T02:46:48;36.30;44.00
21891;DHT22;11110;52.386;16.940;2022-08-19T02:49:19;36.30;43.90
21891;DHT22;11110;52.386;16.940;2022-08-19T02:51:47;36.30;44.00
21891;DHT22;11110;52.386;16.940;2022-08-19T02:54:16;36.30;43.90
21891;DHT22;11110;52.386;16.940;2022-08-19T02:56:44;36.30;43.90
21891;DHT22;11110;52.386;16.940;2022-08-19T02:59:14;36.30;43.80
21891;DHT22;11110;52.386;16.940;2022-08-19T03:01:43;36.30;43.80
21891;DHT22;11110;52.386;16.940;2022-08-19T03:04:13;36.30;43.90
21891;DHT22;11110;52.386;16.940;2022-08-19T03:06:44;36.30;43.80
21891;DHT22;11110;52.386;16.940;2022-08-19T03:09:13;36.30;43.80
21891;DHT22;11110;52.386;16.940;2022-08-19T03:11:42;36.30;43.80
21891;DHT22;11110;52.386;16.940;2022-08-19T03:14:11;36.30;43.80
21891;DHT22;11110;52.386;16.940;2022-08-19T03:16:43;36.30;43.80
21891;DHT22;11110;52.386;16.940;2022-08-19T03:19:12;36.40;43.80
21891;DHT22;11110;52.386;16.940;2022-08-19T03:21:42;36.30;43.70
21891;DHT22;11110;52.386;16.940;2022-08-19T03:24:13;36.30;43.70
21891;DHT22;11110;52.386;16.940;2022-08-19T03:26:44;36.30;43.70
21891;DHT22;11110;52.386;16.940;2022-08-19T03:29:13;36.30;43.70
21891;DHT22;11110;52.386;16.940;2022-08-19T03:31:53;36.30;43.70
21891;DHT22;11110;52.386;16.940;2022-08-19T03:34:25;36.30;43.80
21891;DHT22;11110;52.386;16.940;2022-08-19T03:36:56;36.30;43.70
21891;DHT22;11110;52.386;16.940;2022-08-19T03:39:26;36.20;43.80
21891;DHT22;11110;52.386;16.940;2022-08-19T03:41:55;36.30;43.90
21891;DHT22;11110;52.386;16.940;2022-08-19T03:44:44;36.20;43.90
21891;DHT22;11110;52.386;16.940;2022-08-19T03:47:14;36.20;44.00
21891;DHT22;11110;52.386;16.940;2022-08-19T03:49:44;36.20;44.00
21891;DHT22;11110;52.386;16.940;2022-08-19T03:52:13;36.20;44.00
21891;DHT22;11110;52.386;16.940;2022-08-19T03:54:42;36.10;44.00
21891;DHT22;11110;52.386;16.940;2022-08-19T03:57:11;36.10;44.00
21891;DHT22;11110;52.386;16.940;2022-08-19T03:59:40;36.10;44.30
21891;DHT22;11110;52.386;16.940;2022-08-19T04:02:11;36.10;44.90
21891;DHT22;11110;52.386;16.940;2022-08-19T04:04:42;36.00;44.20
21891;DHT22;11110;52.386;16.940;2022-08-19T04:07:13;36.10;44.20
21891;DHT22;11110;52.386;16.940;2022-08-19T04:09:43;36.00;44.30
21891;DHT22;11110;52.386;16.940;2022-08-19T04:12:12;36.00;44.40
21891;DHT22;11110;52.386;16.940;2022-08-19T04:14:41;36.00;44.40
21891;DHT22;11110;52.386;16.940;2022-08-19T04:17:10;36.00;45.00
21891;DHT22;11110;52.386;16.940;2022-08-19T04:19:41;36.00;44.50
21891;DHT22;11110;52.386;16.940;2022-08-19T04:22:10;36.00;44.50
21891;DHT22;11110;52.386;16.940;2022-08-19T04:24:39;36.00;44.60
21891;DHT22;11110;52.386;16.940;2022-08-19T04:27:07;35.90;44.70
21891;DHT22;11110;52.386;16.940;2022-08-19T04:29:36;35.90;44.80
21891;DHT22;11110;52.386;16.940;2022-08-19T04:32:06;35.90;44.60
21891;DHT22;11110;52.386;16.940;2022-08-19T04:34:36;35.90;45.30
21891;DHT22;11110;52.386;16.940;2022-08-19T04:37:27;35.90;44.60
21891;DHT22;11110;52.386;16.940;2022-08-19T04:40:05;35.90;44.70
21891;DHT22;11110;52.386;16.940;2022-08-19T04:42:51;35.90;44.80
21891;DHT22;11110;52.386;16.940;2022-08-19T04:45:21;35.90;44.80
21891;DHT22;11110;52.386;16.940;2022-08-19T04:47:49;35.90;44.80
21891;DHT22;11110;52.386;16.940;2022-08-19T04:50:43;35.90;44.70
21891;DHT22;11110;52.386;16.940;2022-08-19T04:53:13;35.80;44.80
21891;DHT22;11110;52.386;16.940;2022-08-19T04:55:42;35.80;44.80
21891;DHT22;11110;52.386;16.940;2022-08-19T04:58:11;35.80;44.80
21891;DHT22;11110;52.386;16.940;2022-08-19T05:00:39;35.80;44.80
21891;DHT22;11110;52.386;16.940;2022-08-19T05:03:08;35.80;44.90
21891;DHT22;11110;52.386;16.940;2022-08-19T05:05:41;35.80;44.90
21891;DHT22;11110;52.386;16.940;2022-08-19T05:08:12;35.90;44.90
21891;DHT22;11110;52.386;16.940;2022-08-19T05:10:57;35.80;44.90
21891;DHT22;11110;52.386;16.940;2022-08-19T05:13:25;35.80;45.00
21891;DHT22;11110;52.386;16.940;2022-08-19T05:15:54;35.80;44.90
21891;DHT22;11110;52.386;16.940;2022-08-19T05:18:23;35.80;45.00
21891;DHT22;11110;52.386;16.940;2022-08-19T05:21:10;35.80;45.10
21891;DHT22;11110;52.386;16.940;2022-08-19T05:23:59;35.80;44.90
21891;DHT22;11110;52.386;16.940;2022-08-19T05:26:27;35.80;45.10
21891;DHT22;11110;52.386;16.940;2022-08-19T05:28:55;35.70;45.00
21891;DHT22;11110;52.386;16.940;2022-08-19T05:31:24;35.70;45.10
21891;DHT22;11110;52.386;16.940;2022-08-19T05:33:52;35.70;45.20
21891;DHT22;11110;52.386;16.940;2022-08-19T05:36:20;35.70;45.20
21891;DHT22;11110;52.386;16.940;2022-08-19T05:38:49;35.70;45.20
21891;DHT22;11110;52.386;16.940;2022-08-19T05:41:20;35.70;45.30
21891;DHT22;11110;52.386;16.940;2022-08-19T05:43:50;35.70;45.20
21891;DHT22;11110;52.386;16.940;2022-08-19T05:46:19;35.70;45.40
21891;DHT22;11110;52.386;16.940;2022-08-19T05:48:54;35.70;45.40
21891;DHT22;11110;52.386;16.940;2022-08-19T05:51:23;35.70;45.20
21891;DHT22;11110;52.386;16.940;2022-08-19T05:53:55;35.70;45.30
21891;DHT22;11110;52.386;16.940;2022-08-19T05:56:26;35.70;45.40
21891;DHT22;11110;52.386;16.940;2022-08-19T05:58:54;35.70;45.30
21891;DHT22;11110;52.386;16.940;2022-08-19T06:01:25;35.70;46.00
21891;DHT22;11110;52.386;16.940;2022-08-19T06:03:54;35.80;45.30
21891;DHT22;11110;52.386;16.940;2022-08-19T06:06:22;35.80;45.10
21891;DHT22;11110;52.386;16.940;2022-08-19T06:08:51;35.80;45.20
21891;DHT22;11110;52.386;16.940;2022-08-19T06:11:21;35.80;45.50
21891;DHT22;11110;52.386;16.940;2022-08-19T06:13:53;35.80;45.30
21891;DHT22;11110;52.386;16.940;2022-08-19T06:16:27;35.80;45.40
21891;DHT22;11110;52.386;16.940;2022-08-19T06:18:58;35.80;45.50
21891;DHT22;11110;52.386;16.940;2022-08-19T06:21:28;35.80;45.50
21891;DHT22;11110;52.386;16.940;2022-08-19T06:23:57;35.80;45.50
21891;DHT22;11110;52.386;16.940;2022-08-19T06:26:26;35.80;45.40
21891;DHT22;11110;52.386;16.940;2022-08-19T06:28:56;35.90;45.50
21891;DHT22;11110;52.386;16.940;2022-08-19T06:31:26;35.80;45.30
21891;DHT22;11110;52.386;16.940;2022-08-19T06:33:55;35.90;45.50
21891;DHT22;11110;52.386;16.940;2022-08-19T06:36:25;35.80;45.30
21891;DHT22;11110;52.386;16.940;2022-08-19T06:38:59;35.80;45.20
21891;DHT22;11110;52.386;16.940;2022-08-19T06:41:29;35.80;45.50
21891;DHT22;11110;52.386;16.940;2022-08-19T06:43:58;35.80;45.60
21891;DHT22;11110;52.386;16.940;2022-08-19T06:46:29;35.80;45.50
21891;DHT22;11110;52.386;16.940;2022-08-19T06:49:01;35.80;45.50
21891;DHT22;11110;52.386;16.940;2022-08-19T06:51:31;35.80;45.70
21891;DHT22;11110;52.386;16.940;2022-08-19T06:54:08;35.80;45.60
21891;DHT22;11110;52.386;16.940;2022-08-19T06:56:46;35.90;45.60
21891;DHT22;11110;52.386;16.940;2022-08-19T06:59:18;35.90;45.60
21891;DHT22;11110;52.386;16.940;2022-08-19T07:01:49;35.90;45.50
21891;DHT22;11110;52.386;16.940;2022-08-19T07:04:21;36.00;45.60
21891;DHT22;11110;52.386;16.940;2022-08-19T07:06:56;36.00;45.60
21891;DHT22;11110;52.386;16.940;2022-08-19T07:09:42;36.00;45.70
21891;DHT22;11110;52.386;16.940;2022-08-19T07:12:23;36.00;45.50
21891;DHT22;11110;52.386;16.940;2022-08-19T07:14:53;36.00;45.30
21891;DHT22;11110;52.386;16.940;2022-08-19T07:17:22;36.10;45.30
21891;DHT22;11110;52.386;16.940;2022-08-19T07:19:51;36.10;45.10
21891;DHT22;11110;52.386;16.940;2022-08-19T07:22:21;36.20;45.40
21891;DHT22;11110;52.386;16.940;2022-08-19T07:24:50;36.20;45.60
21891;DHT22;11110;52.386;16.940;2022-08-19T07:27:20;36.30;45.30
21891;DHT22;11110;52.386;16.940;2022-08-19T07:29:54;36.30;45.20
21891;DHT22;11110;52.386;16.940;2022-08-19T07:32:25;36.40;44.80
21891;DHT22;11110;52.386;16.940;2022-08-19T07:34:54;36.40;44.80
21891;DHT22;11110;52.386;16.940;2022-08-19T07:37:23;36.40;44.80
21891;DHT22;11110;52.386;16.940;2022-08-19T07:39:59;36.50;44.80
21891;DHT22;11110;52.386;16.940;2022-08-19T07:42:28;36.60;44.80
21891;DHT22;11110;52.386;16.940;2022-08-19T07:44:58;36.60;44.70
21891;DHT22;11110;52.386;16.940;2022-08-19T07:47:27;36.60;44.70
21891;DHT22;11110;52.386;16.940;2022-08-19T07:50:18;36.60;44.50
21891;DHT22;11110;52.386;16.940;2022-08-19T07:52:48;36.70;44.40
21891;DHT22;11110;52.386;16.940;2022-08-19T07:55:22;36.80;44.50
21891;DHT22;11110;52.386;16.940;2022-08-19T07:58:09;36.80;44.20
21891;DHT22;11110;52.386;16.940;2022-08-19T08:00:39;36.80;44.00
21891;DHT22;11110;52.386;16.940;2022-08-19T08:03:08;36.90;44.20
21891;DHT22;11110;52.386;16.940;2022-08-19T08:05:37;36.90;44.10
21891;DHT22;11110;52.386;16.940;2022-08-19T08:08:23;36.90;44.10
21891;DHT22;11110;52.386;16.940;2022-08-19T08:11:16;36.90;44.00
21891;DHT22;11110;52.386;16.940;2022-08-19T08:13:47;37.00;44.10
21891;DHT22;11110;52.386;16.940;2022-08-19T08:16:34;37.10;44.20
21891;DHT22;11110;52.386;16.940;2022-08-19T08:19:14;37.10;44.20
21891;DHT22;11110;52.386;16.940;2022-08-19T08:21:53;37.20;44.00
21891;DHT22;11110;52.386;16.940;2022-08-19T08:24:22;37.20;43.80
21891;DHT22;11110;52.386;16.940;2022-08-19T08:26:55;37.20;43.80
21891;DHT22;11110;52.386;16.940;2022-08-19T08:29:25;37.30;43.80
21891;DHT22;11110;52.386;16.940;2022-08-19T08:32:03;37.30;43.60
21891;DHT22;11110;52.386;16.940;2022-08-19T08:34:41;37.40;43.70
21891;DHT22;11110;52.386;16.940;2022-08-19T08:37:10;37.40;43.70
21891;DHT22;11110;52.386;16.940;2022-08-19T08:39:42;37.40;43.60
21891;DHT22;11110;52.386;16.940;2022-08-19T08:42:15;37.50;43.50
21891;DHT22;11110;52.386;16.940;2022-08-19T08:44:51;37.50;43.20
21891;DHT22;11110;52.386;16.940;2022-08-19T08:47:31;37.60;43.60
21891;DHT22;11110;52.386;16.940;2022-08-19T08:50:06;37.60;43.50
21891;DHT22;11110;52.386;16.940;2022-08-19T08:52:41;37.60;43.60
21891;DHT22;11110;52.386;16.940;2022-08-19T08:55:15;37.70;43.20
21891;DHT22;11110;52.386;16.940;2022-08-19T08:57:53;37.70;43.10
21891;DHT22;11110;52.386;16.940;2022-08-19T09:00:25;37.80;43.20
21891;DHT22;11110;52.386;16.940;2022-08-19T09:02:57;37.80;43.20
21891;DHT22;11110;52.386;16.940;2022-08-19T09:05:35;37.80;43.00
21891;DHT22;11110;52.386;16.940;2022-08-19T09:08:20;37.90;43.20
21891;DHT22;11110;52.386;16.940;2022-08-19T09:10:53;37.90;43.10
21891;DHT22;11110;52.386;16.940;2022-08-19T09:13:31;37.90;42.90
21891;DHT22;11110;52.386;16.940;2022-08-19T09:16:06;38.00;43.00
21891;DHT22;11110;52.386;16.940;2022-08-19T09:18:41;38.10;43.30
21891;DHT22;11110;52.386;16.940;2022-08-19T09:21:12;38.10;42.60
21891;DHT22;11110;52.386;16.940;2022-08-19T09:23:41;38.10;42.40
21891;DHT22;11110;52.386;16.940;2022-08-19T09:26:12;38.10;42.50
21891;DHT22;11110;52.386;16.940;2022-08-19T09:28:44;38.20;42.30
21891;DHT22;11110;52.386;16.940;2022-08-19T09:31:18;38.30;42.20
21891;DHT22;11110;52.386;16.940;2022-08-19T09:33:50;38.30;41.90
21891;DHT22;11110;52.386;16.940;2022-08-19T09:36:21;38.30;42.20
21891;DHT22;11110;52.386;16.940;2022-08-19T09:39:02;38.30;41.80
21891;DHT22;11110;52.386;16.940;2022-08-19T09:41:42;38.30;41.90
21891;DHT22;11110;52.386;16.940;2022-08-19T09:44:15;38.30;41.80
21891;DHT22;11110;52.386;16.940;2022-08-19T09:46:44;38.40;41.50
21891;DHT22;11110;52.386;16.940;2022-08-19T09:49:16;38.40;41.60
21891;DHT22;11110;52.386;16.940;2022-08-19T09:51:46;38.60;41.20
21891;DHT22;11110;52.386;16.940;2022-08-19T09:54:18;38.60;41.40
21891;DHT22;11110;52.386;16.940;2022-08-19T09:56:52;38.60;40.80
21891;DHT22;11110;52.386;16.940;2022-08-19T09:59:21;38.60;40.50
21891;DHT22;11110;52.386;16.940;2022-08-19T10:01:49;38.70;40.50
21891;DHT22;11110;52.386;16.940;2022-08-19T10:04:19;38.70;40.90
21891;DHT22;11110;52.386;16.940;2022-08-19T10:06:50;38.80;41.90
21891;DHT22;11110;52.386;16.940;2022-08-19T10:09:21;38.80;40.80
21891;DHT22;11110;52.386;16.940;2022-08-19T10:12:02;38.80;41.40
21891;DHT22;11110;52.386;16.940;2022-08-19T10:14:33;38.80;40.80
21891;DHT22;11110;52.386;16.940;2022-08-19T10:17:02;38.80;40.10
21891;DHT22;11110;52.386;16.940;2022-08-19T10:19:49;38.90;40.50
21891;DHT22;11110;52.386;16.940;2022-08-19T10:22:23;38.90;40.00
21891;DHT22;11110;52.386;16.940;2022-08-19T10:24:52;38.90;39.80
21891;DHT22;11110;52.386;16.940;2022-08-19T10:27:20;38.90;40.30
21891;DHT22;11110;52.386;16.940;2022-08-19T10:29:50;39.00;39.30
21891;DHT22;11110;52.386;16.940;2022-08-19T10:32:18;39.00;39.10
21891;DHT22;11110;52.386;16.940;2022-08-19T10:35:03;39.00;39.50
21891;DHT22;11110;52.386;16.940;2022-08-19T10:37:36;39.00;40.90
21891;DHT22;11110;52.386;16.940;2022-08-19T10:40:23;39.00;40.30
21891;DHT22;11110;52.386;16.940;2022-08-19T10:42:51;39.00;39.50
21891;DHT22;11110;52.386;16.940;2022-08-19T10:45:20;39.10;38.70
21891;DHT22;11110;52.386;16.940;2022-08-19T10:47:49;39.20;38.90
21891;DHT22;11110;52.386;16.940;2022-08-19T10:50:19;39.10;38.40
21891;DHT22;11110;52.386;16.940;2022-08-19T10:53:07;39.20;39.50
21891;DHT22;11110;52.386;16.940;2022-08-19T10:55:36;39.20;38.60
21891;DHT22;11110;52.386;16.940;2022-08-19T10:58:22;39.20;38.30
21891;DHT22;11110;52.386;16.940;2022-08-19T11:00:54;39.20;38.70
21891;DHT22;11110;52.386;16.940;2022-08-19T11:03:23;39.30;39.00
21891;DHT22;11110;52.386;16.940;2022-08-19T11:06:00;39.30;39.20
21891;DHT22;11110;52.386;16.940;2022-08-19T11:08:29;39.40;38.30
21891;DHT22;11110;52.386;16.940;2022-08-19T11:11:01;39.30;39.30
21891;DHT22;11110;52.386;16.940;2022-08-19T11:13:32;39.40;38.40
21891;DHT22;11110;52.386;16.940;2022-08-19T11:16:05;39.40;38.30
21891;DHT22;11110;52.386;16.940;2022-08-19T11:18:39;39.50;39.10
21891;DHT22;11110;52.386;16.940;2022-08-19T11:21:12;39.50;38.50
21891;DHT22;11110;52.386;16.940;2022-08-19T11:23:40;39.50;38.90
21891;DHT22;11110;52.386;16.940;2022-08-19T11:26:10;39.50;38.80
21891;DHT22;11110;52.386;16.940;2022-08-19T11:28:39;39.60;37.90
21891;DHT22;11110;52.386;16.940;2022-08-19T11:31:10;39.60;37.60
21891;DHT22;11110;52.386;16.940;2022-08-19T11:33:39;39.60;37.80
21891;DHT22;11110;52.386;16.940;2022-08-19T11:36:15;39.60;37.70
21891;DHT22;11110;52.386;16.940;2022-08-19T11:38:44;39.70;38.50
21891;DHT22;11110;52.386;16.940;2022-08-19T11:41:16;39.70;37.50
21891;DHT22;11110;52.386;16.940;2022-08-19T11:43:45;39.70;38.20
21891;DHT22;11110;52.386;16.940;2022-08-19T11:46:15;39.80;37.30
21891;DHT22;11110;52.386;16.940;2022-08-19T11:48:44;39.90;37.60
21891;DHT22;11110;52.386;16.940;2022-08-19T11:51:20;39.90;37.70
21891;DHT22;11110;52.386;16.940;2022-08-19T11:53:49;39.90;37.40
21891;DHT22;11110;52.386;16.940;2022-08-19T11:56:19;39.90;37.40
21891;DHT22;11110;52.386;16.940;2022-08-19T11:58:48;40.00;37.60
21891;DHT22;11110;52.386;16.940;2022-08-19T12:01:18;40.00;38.00
21891;DHT22;11110;52.386;16.940;2022-08-19T12:03:48;40.10;38.00
21891;DHT22;11110;52.386;16.940;2022-08-19T12:06:21;40.10;38.10
21891;DHT22;11110;52.386;16.940;2022-08-19T12:08:51;40.20;37.70
21891;DHT22;11110;52.386;16.940;2022-08-19T12:11:21;40.10;37.50
21891;DHT22;11110;52.386;16.940;2022-08-19T12:13:49;40.20;38.10
21891;DHT22;11110;52.386;16.940;2022-08-19T12:16:20;40.20;37.90
21891;DHT22;11110;52.386;16.940;2022-08-19T12:18:50;40.20;37.80
21891;DHT22;11110;52.386;16.940;2022-08-19T12:21:22;40.30;37.80
21891;DHT22;11110;52.386;16.940;2022-08-19T12:23:52;40.30;37.50
21891;DHT22;11110;52.386;16.940;2022-08-19T12:26:22;40.30;36.90
21891;DHT22;11110;52.386;16.940;2022-08-19T12:28:52;40.40;37.60
21891;DHT22;11110;52.386;16.940;2022-08-19T12:31:21;40.40;36.70
21891;DHT22;11110;52.386;16.940;2022-08-19T12:33:49;40.40;37.00
21891;DHT22;11110;52.386;16.940;2022-08-19T12:36:21;40.40;38.00
21891;DHT22;11110;52.386;16.940;2022-08-19T12:38:50;40.50;37.30
21891;DHT22;11110;52.386;16.940;2022-08-19T12:41:20;40.50;37.10
21891;DHT22;11110;52.386;16.940;2022-08-19T12:43:49;40.50;36.50
21891;DHT22;11110;52.386;16.940;2022-08-19T12:46:19;40.60;36.70
21891;DHT22;11110;52.386;16.940;2022-08-19T12:48:51;40.70;37.00
21891;DHT22;11110;52.386;16.940;2022-08-19T12:51:23;40.70;37.20
21891;DHT22;11110;52.386;16.940;2022-08-19T12:53:53;40.70;37.40
21891;DHT22;11110;52.386;16.940;2022-08-19T12:56:22;40.70;37.50
21891;DHT22;11110;52.386;16.940;2022-08-19T12:58:50;40.70;37.60
21891;DHT22;11110;52.386;16.940;2022-08-19T13:01:19;40.60;37.80
21891;DHT22;11110;52.386;16.940;2022-08-19T13:03:50;40.70;37.90
21891;DHT22;11110;52.386;16.940;2022-08-19T13:06:20;40.80;37.60
21891;DHT22;11110;52.386;16.940;2022-08-19T13:08:50;40.80;38.00
21891;DHT22;11110;52.386;16.940;2022-08-19T13:11:24;40.80;37.40
21891;DHT22;11110;52.386;16.940;2022-08-19T13:13:52;40.80;37.60
21891;DHT22;11110;52.386;16.940;2022-08-19T13:16:22;40.90;37.50
21891;DHT22;11110;52.386;16.940;2022-08-19T13:18:50;40.90;37.50
21891;DHT22;11110;52.386;16.940;2022-08-19T13:21:21;41.00;37.00
21891;DHT22;11110;52.386;16.940;2022-08-19T13:23:52;41.10;37.00
21891;DHT22;11110;52.386;16.940;2022-08-19T13:26:21;41.10;37.00
21891;DHT22;11110;52.386;16.940;2022-08-19T13:28:49;41.00;36.90
21891;DHT22;11110;52.386;16.940;2022-08-19T13:31:38;41.00;37.60
21891;DHT22;11110;52.386;16.940;2022-08-19T13:34:30;41.10;37.20
21891;DHT22;11110;52.386;16.940;2022-08-19T13:37:00;40.90;37.10
21891;DHT22;11110;52.386;16.940;2022-08-19T13:39:32;41.10;36.90
21891;DHT22;11110;52.386;16.940;2022-08-19T13:42:02;41.10;36.80
21891;DHT22;11110;52.386;16.940;2022-08-19T13:44:32;41.10;36.90
21891;DHT22;11110;52.386;16.940;2022-08-19T13:47:01;41.10;37.00
21891;DHT22;11110;52.386;16.940;2022-08-19T13:49:35;41.10;36.60
21891;DHT22;11110;52.386;16.940;2022-08-19T13:52:04;41.10;37.00
21891;DHT22;11110;52.386;16.940;2022-08-19T13:54:34;41.10;36.80
21891;DHT22;11110;52.386;16.940;2022-08-19T13:57:03;41.20;36.70
21891;DHT22;11110;52.386;16.940;2022-08-19T13:59:31;41.20;36.60
21891;DHT22;11110;52.386;16.940;2022-08-19T14:02:00;41.20;37.10
21891;DHT22;11110;52.386;16.940;2022-08-19T14:04:29;41.30;36.60
21891;DHT22;11110;52.386;16.940;2022-08-19T14:06:57;41.40;36.80
21891;DHT22;11110;52.386;16.940;2022-08-19T14:09:25;41.50;36.80
21891;DHT22;11110;52.386;16.940;2022-08-19T14:11:55;41.60;36.50
21891;DHT22;11110;52.386;16.940;2022-08-19T14:14:24;41.60;36.10
21891;DHT22;11110;52.386;16.940;2022-08-19T14:16:52;41.70;35.90
21891;DHT22;11110;52.386;16.940;2022-08-19T14:19:21;41.70;35.90
21891;DHT22;11110;52.386;16.940;2022-08-19T14:21:49;41.70;36.00
21891;DHT22;11110;52.386;16.940;2022-08-19T14:24:18;41.70;35.90
21891;DHT22;11110;52.386;16.940;2022-08-19T14:26:46;41.80;35.80
21891;DHT22;11110;52.386;16.940;2022-08-19T14:29:16;41.70;36.10
21891;DHT22;11110;52.386;16.940;2022-08-19T14:31:44;41.80;36.00
21891;DHT22;11110;52.386;16.940;2022-08-19T14:34:13;41.70;35.80
21891;DHT22;11110;52.386;16.940;2022-08-19T14:36:41;41.80;36.00
21891;DHT22;11110;52.386;16.940;2022-08-19T14:39:09;41.70;35.90
21891;DHT22;11110;52.386;16.940;2022-08-19T14:41:40;41.70;36.00
21891;DHT22;11110;52.386;16.940;2022-08-19T14:44:09;41.80;36.20
21891;DHT22;11110;52.386;16.940;2022-08-19T14:46:40;41.70;35.80
21891;DHT22;11110;52.386;16.940;2022-08-19T14:49:16;41.70;36.10
21891;DHT22;11110;52.386;16.940;2022-08-19T14:51:45;41.60;36.10
21891;DHT22;11110;52.386;16.940;2022-08-19T14:54:14;41.60;36.20
21891;DHT22;11110;52.386;16.940;2022-08-19T14:56:43;41.60;36.90
21891;DHT22;11110;52.386;16.940;2022-08-19T14:59:11;41.60;36.40
21891;DHT22;11110;52.386;16.940;2022-08-19T15:01:41;41.60;36.80
21891;DHT22;11110;52.386;16.940;2022-08-19T15:04:09;41.50;36.20
21891;DHT22;11110;52.386;16.940;2022-08-19T15:06:37;41.40;36.40
21891;DHT22;11110;52.386;16.940;2022-08-19T15:09:06;41.40;36.30
21891;DHT22;11110;52.386;16.940;2022-08-19T15:11:34;41.40;36.50
21891;DHT22;11110;52.386;16.940;2022-08-19T15:14:04;41.40;36.30
21891;DHT22;11110;52.386;16.940;2022-08-19T15:16:33;41.40;36.40
21891;DHT22;11110;52.386;16.940;2022-08-19T15:19:03;41.30;36.50
21891;DHT22;11110;52.386;16.940;2022-08-19T15:21:32;41.30;36.50
21891;DHT22;11110;52.386;16.940;2022-08-19T15:24:00;41.30;36.70
21891;DHT22;11110;52.386;16.940;2022-08-19T15:26:29;41.30;36.40
21891;DHT22;11110;52.386;16.940;2022-08-19T15:29:00;41.20;36.50
21891;DHT22;11110;52.386;16.940;2022-08-19T15:31:35;41.20;36.30
21891;DHT22;11110;52.386;16.940;2022-08-19T15:34:06;41.10;36.40
21891;DHT22;11110;52.386;16.940;2022-08-19T15:36:35;41.00;36.40
21891;DHT22;11110;52.386;16.940;2022-08-19T15:39:04;41.00;36.70
21891;DHT22;11110;52.386;16.940;2022-08-19T15:41:33;40.90;36.70